Greenville, Michigan
Current Conditions -  °F | °C
As of 7:53 PM on Friday 24 Oct 2014 (Local Time) from KY70 Reporting Station
Clear Clear  
Wind Chill: 52°   Ceiling: Unl
Heat Index: 52°   Visibility: 10mi
Dew Point: 47°   Wind: 3mph
Humidity: 83%   Direction: 270°W
Pressure: 29.97"   Gusts: NA
Location:  43.18°N, 85.25°W
Report Text: KY70 242353Z AUTO 27003KT 10SM CLR 11/08 A2997 RMK AO2 T01120084
Loading
Personal Weather Stations






























Interactive Weather Map
Tropical Storm Tracking
New forecast layout! Learn more

10-Day Weather Forecast

Advertisements
Track Severe Weather on mobile